Time;durP1;ratioP1;P1;durP2;ratioP2;P2;SDS_P1;SDS_P2;PMS_P1;PMS_P2;Temp;Humidity;BMP_temperature;BMP_pressure;BME280_temperature;BME280_humidity;BME280_pressure;Samples;Min_cycle;Max_cycle;Signal;HPM_P1;HPM_P2
2022/11/05 00:10:02;;;;;;;;;;;;;;;-143.48;86.25;79275.56;5135519;27;20380;-31
2022/11/05 00:17:55;;;;;;;;;;;;;;;-143.48;85.65;79291.44;5135296;27;20282;-30
2022/11/05 00:20:21;;;;;;;;;;;;;;;-143.48;85.36;79299.38;5135031;27;19911;-31
2022/11/05 00:25:29;;;;;;;;;;;;;;;-143.48;85.97;79333.09;5135845;28;19973;-31
2022/11/05 00:27:59;;;;;;;;;;;;;;;-143.48;87.53;79327.13;5135182;28;19916;-31
2022/11/05 00:30:24;;;;;;;;;;;;;;;-143.48;86.87;79333.09;5135548;28;19935;-31
2022/11/05 00:32:50;;;;;;;;;;;;;;;-143.48;86.56;79315.25;5134902;28;19915;-31
2022/11/05 00:35:16;;;;;;;;;;;;;;;-143.48;86.30;79315.25;5135082;28;19912;-30
2022/11/05 00:37:42;;;;;;;;;;;;;;;-143.48;85.67;79343.00;5134738;28;19998;-31
2022/11/05 00:40:07;;;;;;;;;;;;;;;-143.48;86.32;79350.94;5135394;28;19954;-31
2022/11/05 00:45:33;;;;;;;;;;;;;;;-143.48;85.99;79341.03;5071992;28;19912;-31
2022/11/05 00:50:42;;;;;;;;;;;;;;;-143.48;86.17;79362.84;5133267;28;20469;-31
2022/11/05 00:53:07;;;;;;;;;;;;;;;-143.48;87.04;79374.75;5134667;28;19915;-31
2022/11/05 00:55:36;;;;;;;;;;;;;;;-143.48;86.97;79378.72;5134093;28;20023;-30
2022/11/05 00:58:03;;;;;;;;;;;;;;;-143.48;86.74;79366.81;5134037;28;19916;-31
2022/11/05 01:00:29;;;;;;;;;;;;;;;-143.48;86.95;79370.78;5116103;28;19919;-30
2022/11/05 01:02:58;;;;;;;;;;;;;;;-143.48;87.08;79360.88;5134909;28;19915;-31
2022/11/05 01:05:23;;;;;;;;;;;;;;;-143.48;86.75;79362.84;5134799;28;19968;-31
2022/11/05 01:07:50;;;;;;;;;;;;;;;-143.48;87.89;79378.72;5134617;28;20358;-31
2022/11/05 01:10:15;;;;;;;;;;;;;;;-143.48;87.26;79368.78;5134604;28;19911;-31
2022/11/05 01:12:40;;;;;;;;;;;;;;;-143.48;86.93;79376.72;5133568;27;20392;-31
2022/11/05 01:15:06;;;;;;;;;;;;;;;-143.48;87.23;79368.78;5137075;27;20006;-31
2022/11/05 01:17:31;;;;;;;;;;;;;;;-143.48;87.36;79388.63;5139033;27;19918;-31
2022/11/05 01:19:56;;;;;;;;;;;;;;;-143.48;87.47;79382.69;5138676;27;19912;-32
2022/11/05 01:22:21;;;;;;;;;;;;;;;-143.48;86.96;79390.63;5138306;27;19911;-31
2022/11/05 01:24:46;;;;;;;;;;;;;;;-143.48;87.31;79400.53;5138303;27;20361;-31
2022/11/05 01:27:12;;;;;;;;;;;;;;;-143.48;87.37;79400.53;5119789;27;19919;-30
2022/11/05 01:29:37;;;;;;;;;;;;;;;-143.48;87.06;79402.53;5138511;27;19942;-29
2022/11/05 01:32:02;;;;;;;;;;;;;;;-143.48;86.97;79420.38;5138626;27;20320;-31
2022/11/05 01:34:27;;;;;;;;;;;;;;;-143.48;87.32;79424.34;5138406;27;19917;-32
2022/11/05 01:36:52;;;;;;;;;;;;;;;-143.48;88.04;79426.31;5138024;27;19965;-34
2022/11/05 01:39:18;;;;;;;;;;;;;;;-143.48;87.68;79412.44;5138304;27;19911;-31
2022/11/05 01:41:43;;;;;;;;;;;;;;;-143.48;87.78;79404.50;5138262;27;19971;-31
2022/11/05 01:44:26;;;;;;;;;;;;;;;-143.48;87.81;79386.66;5137859;27;19915;-31
2022/11/05 01:46:52;;;;;;;;;;;;;;;-143.48;87.13;79402.53;5137871;27;20280;-31
2022/11/05 01:49:28;;;;;;;;;;;;;;;-143.48;87.21;79392.59;5137811;27;20006;-31
2022/11/05 01:51:54;;;;;;;;;;;;;;;-143.48;86.90;79394.59;5137744;27;19947;-31
2022/11/05 01:54:23;;;;;;;;;;;;;;;-143.48;86.71;79394.59;5137681;27;20377;-31
2022/11/05 01:56:55;;;;;;;;;;;;;;;-143.48;87.21;79396.56;5138198;27;19994;-31
2022/11/05 01:59:27;;;;;;;;;;;;;;;-143.48;86.82;79398.56;5137590;27;19915;-31
2022/11/05 02:01:52;;;;;;;;;;;;;;;-143.48;87.28;79388.63;5137551;27;20014;-31
2022/11/05 02:04:31;;;;;;;;;;;;;;;-143.48;86.53;79388.63;5138069;27;19948;-31
2022/11/05 02:06:57;;;;;;;;;;;;;;;-143.48;87.16;79394.59;5137756;27;19911;-31
2022/11/05 02:09:28;;;;;;;;;;;;;;;-143.48;86.42;79400.53;5137369;27;20365;-31
2022/11/05 02:11:54;;;;;;;;;;;;;;;-143.48;87.18;79414.44;5137916;27;19912;-31
2022/11/05 02:14:19;;;;;;;;;;;;;;;-143.48;86.91;79408.47;5137436;27;19920;-28
2022/11/05 02:16:46;;;;;;;;;;;;;;;-143.48;87.22;79404.50;5137357;27;20358;-29
2022/11/05 02:19:11;;;;;;;;;;;;;;;-143.48;87.02;79408.47;5137182;27;20025;-29
2022/11/05 02:21:55;;;;;;;;;;;;;;;-143.48;87.04;79416.41;5137174;27;19950;-28
2022/11/05 02:24:37;;;;;;;;;;;;;;;-143.48;86.82;79410.47;5137251;27;19915;-29
2022/11/05 02:27:08;;;;;;;;;;;;;;;-143.48;87.34;79410.47;5137544;27;19918;-29
2022/11/05 02:29:43;;;;;;;;;;;;;;;-143.48;86.77;79406.50;5136774;27;20049;-29
2022/11/05 02:32:14;;;;;;;;;;;;;;;-143.48;85.99;79400.53;5136936;27;19916;-29
2022/11/05 02:34:48;;;;;;;;;;;;;;;-143.48;86.42;79408.47;5136926;27;20277;-29
2022/11/05 02:37:21;;;;;;;;;;;;;;;-143.48;86.22;79400.53;5137059;27;20009;-29
2022/11/05 02:39:59;;;;;;;;;;;;;;;-143.48;86.45;79422.34;5137029;27;19918;-29
2022/11/05 02:42:47;;;;;;;;;;;;;;;-143.48;86.01;79414.44;5137357;27;20281;-29
2022/11/05 02:45:38;;;;;;;;;;;;;;;-143.48;85.63;79420.38;5089107;27;19911;-29
2022/11/05 02:48:15;;;;;;;;;;;;;;;-143.48;85.70;79430.28;5097195;27;19919;-29
2022/11/05 02:50:57;;;;;;;;;;;;;;;-143.48;85.98;79424.34;5136866;27;19922;-29
2022/11/05 02:53:40;;;;;;;;;;;;;;;-143.48;86.13;79436.25;5136534;27;19918;-29
2022/11/05 02:56:13;;;;;;;;;;;;;;;-143.48;86.01;79436.25;5136403;27;19915;-29
2022/11/05 02:58:38;;;;;;;;;;;;;;;-143.48;86.03;79444.19;5136474;27;20009;-29
2022/11/05 03:01:05;;;;;;;;;;;;;;;-143.48;86.15;79456.09;5136238;27;19995;-29
2022/11/05 03:03:30;;;;;;;;;;;;;;;-143.48;86.07;79458.06;5136592;27;19915;-29
2022/11/05 03:05:56;;;;;;;;;;;;;;;-143.48;85.78;79462.03;5136577;27;20384;-29
2022/11/05 03:08:33;;;;;;;;;;;;;;;-143.48;85.80;79458.06;5136778;27;19912;-29
2022/11/05 03:11:06;;;;;;;;;;;;;;;-143.48;86.34;79458.06;5136138;27;19950;-29
2022/11/05 03:13:42;;;;;;;;;;;;;;;-143.48;86.81;79471.94;5136123;27;19918;-29
2022/11/05 03:16:14;;;;;;;;;;;;;;;-143.48;86.71;79481.88;5136693;27;19927;-29
2022/11/05 03:18:48;;;;;;;;;;;;;;;-143.48;86.76;79466.00;5136313;27;19911;-30
2022/11/05 03:21:20;;;;;;;;;;;;;;;-143.48;86.03;79471.94;5136492;27;19918;-29
2022/11/05 03:24:23;;;;;;;;;;;;;;;-143.48;86.23;79466.00;5136959;27;20342;-29
2022/11/05 03:27:09;;;;;;;;;;;;;;;-143.48;86.06;79460.06;5033183;28;20008;-29
2022/11/05 03:29:37;;;;;;;;;;;;;;;-143.48;85.73;79473.94;5033030;28;19944;-29
2022/11/05 03:32:04;;;;;;;;;;;;;;;-143.48;85.48;79458.06;5096435;27;19915;-29
2022/11/05 03:34:31;;;;;;;;;;;;;;;-143.48;85.44;79442.19;5135677;27;19915;-29
2022/11/05 03:36:57;;;;;;;;;;;;;;;-143.48;83.56;79422.34;5134819;27;19915;-29
2022/11/05 03:39:31;;;;;;;;;;;;;;;-143.48;83.43;79416.41;5135627;27;19911;-29
2022/11/05 03:41:57;;;;;;;;;;;;;;;-143.48;83.84;79418.38;5135770;27;19911;-29
2022/11/05 03:44:28;;;;;;;;;;;;;;;-143.48;83.72;79428.31;5136258;27;19916;-29
2022/11/05 03:46:56;;;;;;;;;;;;;;;-143.48;83.59;79428.31;5135794;27;19912;-29
2022/11/05 03:49:24;;;;;;;;;;;;;;;-143.48;83.82;79426.31;5135394;27;19918;-29
2022/11/05 03:51:55;;;;;;;;;;;;;;;-143.48;83.60;79426.31;5135387;27;19912;-29
2022/11/05 03:54:21;;;;;;;;;;;;;;;-143.48;83.81;79436.25;5135636;27;19915;-29
2022/11/05 03:56:52;;;;;;;;;;;;;;;-143.48;84.38;79444.19;5135188;27;19964;-29
2022/11/05 03:59:18;;;;;;;;;;;;;;;-143.48;84.75;79438.22;5135855;27;19923;-29
2022/11/05 04:01:44;;;;;;;;;;;;;;;-143.48;84.43;79436.25;5135140;27;20289;-29
2022/11/05 04:04:09;;;;;;;;;;;;;;;-143.48;84.24;79438.22;5135235;27;19911;-29
2022/11/05 04:14:46;;;;;;;;;;;;;;;-143.48;84.45;79442.19;5135140;27;19983;-29
2022/11/05 04:17:11;;;;;;;;;;;;;;;-143.48;84.29;79458.06;5134958;27;19919;-29
2022/11/05 04:25:13;;;;;;;;;;;;;;;-143.48;84.72;79436.25;5096531;27;19918;-29
2022/11/05 04:27:41;;;;;;;;;;;;;;;-143.48;84.08;79426.31;5135721;28;20410;-29
2022/11/05 04:30:19;;;;;;;;;;;;;;;-143.48;84.28;79420.38;5135193;28;19918;-29
2022/11/05 04:32:53;;;;;;;;;;;;;;;-143.48;84.23;79418.38;5135158;28;20291;-29
2022/11/05 04:35:19;;;;;;;;;;;;;;;-143.48;84.03;79416.41;5135035;28;19911;-29
2022/11/05 04:37:44;;;;;;;;;;;;;;;-143.48;83.10;79422.34;5135117;28;20273;-29
2022/11/05 04:40:09;;;;;;;;;;;;;;;-143.48;83.37;79428.31;5135003;28;19995;-29
2022/11/05 04:42:34;;;;;;;;;;;;;;;-143.48;83.38;79428.31;5135371;28;20235;-29
2022/11/05 04:44:59;;;;;;;;;;;;;;;-143.48;83.76;79426.31;5135088;28;19987;-29
2022/11/05 04:47:24;;;;;;;;;;;;;;;-143.48;83.79;79432.28;5135026;27;19918;-29
2022/11/05 04:49:50;;;;;;;;;;;;;;;-143.48;84.02;79430.28;5138590;27;19922;-29
2022/11/05 04:52:16;;;;;;;;;;;;;;;-143.48;83.70;79430.28;5138899;27;19912;-29
2022/11/05 04:54:41;;;;;;;;;;;;;;;-143.48;83.38;79412.44;5139451;27;20006;-29
2022/11/05 04:57:07;;;;;;;;;;;;;;;-143.48;83.82;79424.34;5138770;27;20437;-29
2022/11/05 04:59:32;;;;;;;;;;;;;;;-143.48;83.92;79416.41;5139373;27;19961;-29
2022/11/05 05:01:57;;;;;;;;;;;;;;;-143.48;83.54;79420.38;5139134;27;19998;-29
2022/11/05 05:04:22;;;;;;;;;;;;;;;-143.48;83.64;79418.38;5138675;27;20385;-29
2022/11/05 05:06:47;;;;;;;;;;;;;;;-143.48;83.46;79424.34;5139315;27;19915;-29
2022/11/05 05:09:13;;;;;;;;;;;;;;;-143.48;83.85;79434.25;5138896;27;19959;-29
2022/11/05 05:11:38;;;;;;;;;;;;;;;-143.48;84.40;79440.22;5138822;27;19915;-29
2022/11/05 05:14:03;;;;;;;;;;;;;;;-143.48;84.55;79438.22;5138553;27;19912;-29
2022/11/05 05:16:28;;;;;;;;;;;;;;;-143.48;84.08;79434.25;5138387;27;19915;-29
2022/11/05 05:18:53;;;;;;;;;;;;;;;-143.48;85.33;79440.22;5138674;27;19965;-29
2022/11/05 05:21:38;;;;;;;;;;;;;;;-143.48;85.34;79444.19;5138389;27;20385;-29
2022/11/05 05:24:07;;;;;;;;;;;;;;;-143.48;85.33;79460.06;5120676;27;19915;-29
2022/11/05 05:26:33;;;;;;;;;;;;;;;-143.48;85.43;79440.22;5138547;27;19916;-29
2022/11/05 05:28:58;;;;;;;;;;;;;;;-143.48;85.15;79442.19;5138199;27;19918;-30
2022/11/05 05:31:23;;;;;;;;;;;;;;;-143.48;84.92;79456.09;5138746;27;19912;-29
2022/11/05 05:33:51;;;;;;;;;;;;;;;-143.48;84.92;79436.25;5138257;27;20372;-29
2022/11/05 05:36:16;;;;;;;;;;;;;;;-143.48;84.58;79442.19;5138271;27;19916;-29
2022/11/05 05:38:42;;;;;;;;;;;;;;;-143.48;84.58;79434.25;5138614;27;19919;-29
2022/11/05 05:41:07;;;;;;;;;;;;;;;-143.48;84.55;79432.28;5138400;27;19998;-29
2022/11/05 05:43:32;;;;;;;;;;;;;;;-143.48;84.66;79440.22;5138243;27;19964;-29
2022/11/05 05:46:05;;;;;;;;;;;;;;;-143.48;84.81;79442.19;5137879;27;19919;-29
2022/11/05 05:48:30;;;;;;;;;;;;;;;-143.48;84.57;79434.25;5137770;27;20289;-29
2022/11/05 05:51:03;;;;;;;;;;;;;;;-143.48;84.45;79450.13;5137706;27;19915;-30
2022/11/05 05:53:28;;;;;;;;;;;;;;;-143.48;84.45;79432.28;5137997;27;20367;-29
2022/11/05 05:55:54;;;;;;;;;;;;;;;-143.48;84.16;79428.31;5137556;27;19963;-29
2022/11/05 05:58:19;;;;;;;;;;;;;;;-143.48;83.86;79420.38;5137848;27;19912;-29
2022/11/05 06:00:44;;;;;;;;;;;;;;;-143.48;83.48;79420.38;5118152;27;19915;-29
2022/11/05 06:03:09;;;;;;;;;;;;;;;-143.48;83.33;79418.38;5137506;27;19916;-31
2022/11/05 06:05:35;;;;;;;;;;;;;;;-143.48;84.32;79426.31;5137614;27;20273;-29
2022/11/05 06:08:00;;;;;;;;;;;;;;;-143.48;84.36;79412.44;5137547;27;19919;-29
2022/11/05 06:10:25;;;;;;;;;;;;;;;-143.48;83.50;79414.44;5137614;27;19919;-29
2022/11/05 06:12:50;;;;;;;;;;;;;;;-143.48;83.38;79396.56;5137519;27;19922;-30
2022/11/05 06:15:16;;;;;;;;;;;;;;;-143.48;83.91;79392.59;5137010;27;20416;-29
2022/11/05 06:17:44;;;;;;;;;;;;;;;-143.48;83.47;79392.59;5137724;27;20414;-29
2022/11/05 06:20:10;;;;;;;;;;;;;;;-143.48;83.50;79400.53;5137739;27;19912;-29
2022/11/05 06:22:35;;;;;;;;;;;;;;;-143.48;83.51;79394.59;5137162;27;20338;-29
2022/11/05 06:25:00;;;;;;;;;;;;;;;-143.48;83.67;79386.66;5137432;27;19919;-29
2022/11/05 06:27:27;;;;;;;;;;;;;;;-143.48;82.94;79380.69;5137381;27;20010;-29
2022/11/05 06:29:52;;;;;;;;;;;;;;;-143.48;83.54;79374.75;5136957;27;20226;-29
2022/11/05 06:32:17;;;;;;;;;;;;;;;-143.48;82.77;79374.75;5136982;27;19918;-29
2022/11/05 06:34:42;;;;;;;;;;;;;;;-143.48;83.49;79364.84;5136947;27;19915;-29
2022/11/05 06:37:07;;;;;;;;;;;;;;;-143.48;83.54;79374.75;5137299;27;19919;-29
2022/11/05 06:39:33;;;;;;;;;;;;;;;-143.48;82.75;79364.84;5137244;27;19916;-29
2022/11/05 06:41:58;;;;;;;;;;;;;;;-143.48;82.31;79374.75;5136998;27;19912;-29
2022/11/05 06:44:24;;;;;;;;;;;;;;;-143.48;83.10;79380.69;5136974;27;19998;-29
2022/11/05 06:46:49;;;;;;;;;;;;;;;-143.48;82.30;79380.69;5136693;27;19918;-29
2022/11/05 06:49:14;;;;;;;;;;;;;;;-143.48;81.84;79380.69;5136615;27;19911;-29
2022/11/05 06:51:39;;;;;;;;;;;;;;;-143.48;82.25;79388.63;5136751;27;19915;-29
2022/11/05 06:54:04;;;;;;;;;;;;;;;-143.48;81.88;79382.69;5137132;27;20003;-29
2022/11/05 06:56:29;;;;;;;;;;;;;;;-143.48;81.99;79392.59;5135505;27;20363;-29
2022/11/05 06:58:55;;;;;;;;;;;;;;;-143.48;81.72;79398.56;5136209;27;19919;-29
2022/11/05 07:01:20;;;;;;;;;;;;;;;-143.48;82.54;79402.53;5136525;27;20351;-29
2022/11/05 07:03:47;;;;;;;;;;;;;;;-143.48;82.25;79404.50;5137120;27;19986;-29
2022/11/05 07:06:13;;;;;;;;;;;;;;;-143.48;82.50;79408.47;5136543;27;19950;-29
2022/11/05 07:08:38;;;;;;;;;;;;;;;-143.48;82.67;79412.44;5136283;27;19911;-29
2022/11/05 07:11:03;;;;;;;;;;;;;;;-143.48;83.15;79410.47;5136756;27;20273;-29
2022/11/05 07:13:29;;;;;;;;;;;;;;;-143.48;82.88;79416.41;5135507;27;19912;-29
2022/11/05 07:15:55;;;;;;;;;;;;;;;-143.48;82.74;79408.47;5135946;27;19934;-29
2022/11/05 07:18:21;;;;;;;;;;;;;;;-143.48;82.49;79420.38;5117652;27;19919;-29
2022/11/05 07:20:46;;;;;;;;;;;;;;;-143.48;82.89;79414.44;5135988;27;19919;-29
2022/11/05 07:23:12;;;;;;;;;;;;;;;-143.48;82.80;79428.31;5135932;27;20002;-29
2022/11/05 07:25:37;;;;;;;;;;;;;;;-143.48;83.06;79428.31;5135860;27;19915;-29
2022/11/05 07:28:03;;;;;;;;;;;;;;;-143.48;82.97;79432.28;5135843;27;19911;-29
2022/11/05 07:30:28;;;;;;;;;;;;;;;-143.48;82.79;79434.25;5136617;27;19912;-29
2022/11/05 07:32:54;;;;;;;;;;;;;;;-143.48;82.87;79444.19;5117359;27;19951;-29
2022/11/05 07:35:19;;;;;;;;;;;;;;;-143.48;83.04;79432.28;5135598;27;19918;-29
2022/11/05 07:37:46;;;;;;;;;;;;;;;-143.48;82.86;79420.38;5135417;27;20348;-29
2022/11/05 07:40:12;;;;;;;;;;;;;;;-143.48;82.41;79420.38;5135740;27;19912;-29
2022/11/05 07:42:42;;;;;;;;;;;;;;;-143.48;82.90;79428.31;5135597;27;19912;-29
2022/11/05 07:45:07;;;;;;;;;;;;;;;-143.48;81.50;79358.88;5135880;27;20369;-29
2022/11/05 07:47:35;;;;;;;;;;;;;;;-143.48;66.14;78809.44;5135508;27;19948;-29
2022/11/05 07:50:00;;;;;;;;;;;;;;;-143.48;52.67;78422.69;5135987;27;19976;-29
2022/11/05 07:52:25;;;;;;;;;;;;;;;-143.48;50.49;78492.09;5135672;27;20419;-29
2022/11/05 07:54:50;;;;;;;;;;;;;;;-143.48;49.68;78488.13;5135295;27;20006;-30
2022/11/05 07:57:15;;;;;;;;;;;;;;;-143.48;58.40;78884.81;5135686;27;19916;-29
2022/11/05 07:59:40;;;;;;;;;;;;;;;-143.48;67.51;79124.81;5135516;27;20273;-29
2022/11/05 08:02:08;;;;;;;;;;;;;;;-143.48;70.75;79154.56;5135538;27;20022;-29
2022/11/05 08:04:34;;;;;;;;;;;;;;;-143.48;72.05;79158.53;5099901;27;19911;-29
2022/11/05 08:07:00;;;;;;;;;;;;;;;-143.48;72.93;79160.50;5135892;27;19918;-29
2022/11/05 08:09:25;;;;;;;;;;;;;;;-143.48;72.93;79166.47;5135443;27;19918;-29
2022/11/05 08:11:50;;;;;;;;;;;;;;;-143.48;74.63;79210.09;5135482;27;19915;-29
2022/11/05 08:14:15;;;;;;;;;;;;;;;-143.48;74.91;79212.09;5134633;27;20319;-29
2022/11/05 08:16:41;;;;;;;;;;;;;;;-143.48;75.26;79212.09;5134943;27;19922;-31
2022/11/05 08:19:06;;;;;;;;;;;;;;;-143.48;75.77;79202.16;5133915;27;19918;-30
2022/11/05 08:21:31;;;;;;;;;;;;;;;-143.48;75.54;79190.28;5134995;27;19912;-30
2022/11/05 08:23:56;;;;;;;;;;;;;;;-143.48;76.93;79241.84;5135191;27;19911;-30
2022/11/05 08:26:21;;;;;;;;;;;;;;;-143.48;77.56;79253.75;5135326;27;19911;-30
2022/11/05 08:28:46;;;;;;;;;;;;;;;-143.48;78.09;79253.75;5134085;27;19912;-31
2022/11/05 08:31:14;;;;;;;;;;;;;;;-143.48;78.55;79277.53;5115742;28;20281;-31
2022/11/05 08:33:39;;;;;;;;;;;;;;;-143.48;79.04;79261.69;5133537;28;19912;-31
2022/11/05 08:36:04;;;;;;;;;;;;;;;-143.48;78.77;79253.75;5132782;28;20250;-31
2022/11/05 08:38:29;;;;;;;;;;;;;;;-143.48;79.06;79243.81;5133106;28;20370;-31
2022/11/05 08:40:56;;;;;;;;;;;;;;;-143.48;78.75;79257.72;5132661;28;19922;-31
2022/11/05 08:43:21;;;;;;;;;;;;;;;-143.48;78.61;79229.94;5132711;28;19912;-31
2022/11/05 08:45:46;;;;;;;;;;;;;;;-143.48;79.20;79237.88;5133113;28;19919;-31
2022/11/05 08:48:13;;;;;;;;;;;;;;;-143.48;78.81;79241.84;5133208;28;19972;-31
2022/11/05 08:50:39;;;;;;;;;;;;;;;-143.48;78.72;79231.94;5133906;28;20365;-31
2022/11/05 08:53:05;;;;;;;;;;;;;;;-143.48;78.30;79198.19;5134583;28;20003;-31
2022/11/05 08:55:30;;;;;;;;;;;;;;;-143.48;77.96;79204.16;5135226;28;19915;-31
2022/11/05 08:57:56;;;;;;;;;;;;;;;-143.48;77.22;79180.34;5134655;28;19915;-31
2022/11/05 09:00:22;;;;;;;;;;;;;;;-143.48;74.54;79114.88;5134883;27;19996;-31
2022/11/05 09:02:47;;;;;;;;;;;;;;;-143.48;60.52;78601.19;5134650;28;19950;-32
2022/11/05 09:05:12;;;;;;;;;;;;;;;-143.48;46.05;78107.34;5134592;28;19911;-31
2022/11/05 09:07:37;;;;;;;;;;;;;;;-143.48;43.99;78057.78;5134815;28;19911;-31
2022/11/05 09:10:03;;;;;;;;;;;;;;;-143.48;40.40;77831.72;5134078;28;19912;-31
2022/11/05 09:12:28;;;;;;;;;;;;;;;-143.48;38.98;77811.88;5115589;28;19919;-31
2022/11/05 09:14:53;;;;;;;;;;;;;;;-143.48;38.66;77730.59;5133933;28;19920;-31
2022/11/05 09:17:19;;;;;;;;;;;;;;;-143.48;37.69;77772.22;5134249;28;20408;-31
2022/11/05 09:19:45;;;;;;;;;;;;;;;-143.48;39.30;77883.28;5134577;28;19932;-31
2022/11/05 09:22:11;;;;;;;;;;;;;;;-143.48;44.87;78295.75;5134340;28;19916;-33
2022/11/05 09:24:37;;;;;;;;;;;;;;;-143.48;54.15;78720.19;5134255;28;19915;-31
2022/11/05 09:27:02;;;;;;;;;;;;;;;-143.48;53.23;78543.66;5134262;28;19957;-31
2022/11/05 09:29:27;;;;;;;;;;;;;;;-143.48;46.92;78202.56;5134713;28;19915;-31
2022/11/05 09:31:53;;;;;;;;;;;;;;;-143.48;52.39;78609.09;5134158;28;19958;-31
2022/11/05 09:34:18;;;;;;;;;;;;;;;-143.48;56.23;78682.50;5134777;27;19936;-31
2022/11/05 09:36:43;;;;;;;;;;;;;;;-143.48;55.62;78688.44;5137344;27;19916;-31
2022/11/05 09:39:08;;;;;;;;;;;;;;;-143.48;55.12;78690.44;5137980;27;19916;-30
2022/11/05 09:41:36;;;;;;;;;;;;;;;-143.48;55.16;78589.28;5138113;27;19911;-31
2022/11/05 09:44:04;;;;;;;;;;;;;;;-143.48;47.67;78283.84;5138140;27;19915;-31
2022/11/05 09:46:44;;;;;;;;;;;;;;;-143.48;53.53;78619.03;5138489;27;19915;-30
2022/11/05 09:49:37;;;;;;;;;;;;;;;-143.48;50.57;78408.81;5119780;27;20302;-31
2022/11/05 09:52:02;;;;;;;;;;;;;;;-143.48;41.27;77853.53;5127269;27;20294;-31
2022/11/05 09:54:30;;;;;;;;;;;;;;;-143.48;39.16;77825.78;5138064;27;19911;-31
2022/11/05 09:56:56;;;;;;;;;;;;;;;-143.48;45.29;78172.81;5137422;27;19920;-31
2022/11/05 09:59:35;;;;;;;;;;;;;;;-143.48;45.59;78210.47;5137491;27;19911;-31
2022/11/05 10:02:19;;;;;;;;;;;;;;;-143.48;48.07;78398.88;5137695;27;19915;-31
2022/11/05 10:04:46;;;;;;;;;;;;;;;-143.48;54.66;78638.84;5137661;27;20217;-31
2022/11/05 10:07:14;;;;;;;;;;;;;;;-143.48;55.11;78674.56;5137447;27;19919;-30
2022/11/05 10:09:44;;;;;;;;;;;;;;;-143.48;57.90;78745.97;5137556;27;20040;-31
2022/11/05 10:12:29;;;;;;;;;;;;;;;-143.48;60.16;78779.69;5137248;27;19918;-30
2022/11/05 10:14:57;;;;;;;;;;;;;;;-143.48;60.30;78823.31;5119020;27;19919;-31
2022/11/05 10:17:24;;;;;;;;;;;;;;;-143.48;61.54;78864.97;5137512;27;20277;-30
2022/11/05 10:19:49;;;;;;;;;;;;;;;-143.48;61.72;78813.41;5136949;27;19948;-31
2022/11/05 10:22:15;;;;;;;;;;;;;;;-143.48;62.88;78894.72;5136967;27;19911;-31
2022/11/05 10:24:43;;;;;;;;;;;;;;;-143.48;64.06;78886.78;5137336;27;19915;-30
2022/11/05 10:27:13;;;;;;;;;;;;;;;-143.48;63.99;78861.00;5137137;27;20002;-30
2022/11/05 10:29:41;;;;;;;;;;;;;;;-143.48;64.17;78874.88;5137629;27;19911;-31
2022/11/05 10:32:06;;;;;;;;;;;;;;;-143.48;64.08;78874.88;5137058;27;19954;-31
2022/11/05 10:34:33;;;;;;;;;;;;;;;-143.48;66.16;78912.56;5136782;27;19911;-31
2022/11/05 10:36:58;;;;;;;;;;;;;;;-143.48;66.41;78896.69;5137347;27;20277;-30
2022/11/05 10:39:26;;;;;;;;;;;;;;;-143.48;65.53;78914.56;5137056;27;19990;-30
2022/11/05 10:42:00;;;;;;;;;;;;;;;-143.48;66.01;78922.50;5136977;27;20002;-30
2022/11/05 10:44:46;;;;;;;;;;;;;;;-143.48;66.08;78944.31;5137227;27;19915;-30
2022/11/05 10:47:11;;;;;;;;;;;;;;;-143.48;66.42;78920.50;5136568;27;19912;-31
2022/11/05 10:49:44;;;;;;;;;;;;;;;-143.48;66.64;78948.28;5136608;27;19912;-31
2022/11/05 10:52:23;;;;;;;;;;;;;;;-143.48;67.18;78956.22;5136909;27;20354;-31
2022/11/05 10:54:50;;;;;;;;;;;;;;;-143.48;67.71;78982.00;5136577;27;19911;-30
2022/11/05 10:57:28;;;;;;;;;;;;;;;-143.48;68.41;78982.00;5136729;27;19962;-31
2022/11/05 11:00:20;;;;;;;;;;;;;;;-143.48;68.93;78950.25;5136368;27;19918;-31
2022/11/05 11:02:50;;;;;;;;;;;;;;;-143.48;67.45;78962.16;5136553;27;20361;-31
2022/11/05 11:05:22;;;;;;;;;;;;;;;-143.48;67.95;78952.25;5136442;27;19911;-31
2022/11/05 11:08:06;;;;;;;;;;;;;;;-143.48;67.12;78950.25;5136327;27;19912;-30
2022/11/05 11:10:36;;;;;;;;;;;;;;;-143.48;66.72;78968.09;5136461;27;20357;-31
2022/11/05 11:13:02;;;;;;;;;;;;;;;-143.48;66.77;78964.16;5136158;27;19912;-30
2022/11/05 11:15:31;;;;;;;;;;;;;;;-143.48;65.43;78942.31;5135658;27;20404;-31
2022/11/05 11:17:57;;;;;;;;;;;;;;;-143.48;64.18;78958.19;5134371;27;19923;-31
2022/11/05 11:20:25;;;;;;;;;;;;;;;-143.48;63.64;78956.22;5135998;27;19912;-31
2022/11/05 11:23:08;;;;;;;;;;;;;;;-143.48;63.90;78914.56;5135908;27;19918;-31
2022/11/05 11:25:43;;;;;;;;;;;;;;;-143.48;62.74;78882.81;5136054;27;20335;-31
2022/11/05 11:28:15;;;;;;;;;;;;;;;-143.48;61.87;78908.59;5136067;27;19911;-31
2022/11/05 11:30:45;;;;;;;;;;;;;;;-143.48;61.98;78884.81;5134516;27;19977;-31
2022/11/05 11:33:11;;;;;;;;;;;;;;;-143.48;61.72;78906.63;5135383;27;19915;-31
2022/11/05 11:35:36;;;;;;;;;;;;;;;-143.48;62.68;78954.22;5135225;27;20048;-31
2022/11/05 11:38:03;;;;;;;;;;;;;;;-143.48;62.14;78936.38;5135607;27;20381;-32
2022/11/05 11:40:30;;;;;;;;;;;;;;;-143.48;62.29;78884.81;5135658;27;19934;-31
2022/11/05 11:42:56;;;;;;;;;;;;;;;-143.48;61.37;78870.91;5136199;27;19919;-31
2022/11/05 11:45:28;;;;;;;;;;;;;;;-143.48;62.03;78926.47;5135584;27;19912;-31
2022/11/05 11:47:54;;;;;;;;;;;;;;;-143.48;62.22;78880.84;5135433;27;19964;-31
2022/11/05 11:50:31;;;;;;;;;;;;;;;-143.48;62.81;78874.88;5135495;27;20320;-31
2022/11/05 11:53:15;;;;;;;;;;;;;;;-143.48;62.58;78882.81;5135467;27;19963;-31
2022/11/05 11:55:54;;;;;;;;;;;;;;;-143.48;62.81;78904.63;5116921;27;19915;-31
2022/11/05 11:58:19;;;;;;;;;;;;;;;-143.48;63.61;78930.41;5134956;27;20002;-31
2022/11/05 12:00:48;;;;;;;;;;;;;;;-143.48;63.76;78916.53;5135152;27;20404;-31
2022/11/05 12:03:26;;;;;;;;;;;;;;;-143.48;63.48;78902.66;5135485;27;19938;-30
2022/11/05 12:05:57;;;;;;;;;;;;;;;-143.48;63.29;78862.97;5135889;27;19915;-30
2022/11/05 12:08:25;;;;;;;;;;;;;;;-143.48;61.69;78857.03;5135529;27;20269;-30
2022/11/05 12:10:58;;;;;;;;;;;;;;;-143.48;61.23;78827.28;5135640;27;19947;-31
2022/11/05 12:13:45;;;;;;;;;;;;;;;-143.48;59.16;78775.72;5135407;27;19912;-31
2022/11/05 12:16:25;;;;;;;;;;;;;;;-143.48;57.90;78716.22;5134903;27;19923;-30
2022/11/05 12:18:56;;;;;;;;;;;;;;;-143.48;52.93;78478.22;5135099;27;19911;-32
2022/11/05 12:21:23;;;;;;;;;;;;;;;-143.48;49.04;78307.66;5134463;27;20217;-30
2022/11/05 12:24:07;;;;;;;;;;;;;;;-143.48;49.21;78351.28;5116546;27;19961;-30
2022/11/05 12:26:35;;;;;;;;;;;;;;;-143.48;50.52;78404.84;5135206;27;19918;-30
2022/11/05 12:29:03;;;;;;;;;;;;;;;-143.48;54.47;78712.25;5135547;27;20270;-30
2022/11/05 12:31:28;;;;;;;;;;;;;;;-143.48;55.76;78706.28;5134682;27;19919;-30
2022/11/05 12:33:53;;;;;;;;;;;;;;;-143.48;55.83;78730.09;5134643;28;19912;-30
2022/11/05 12:36:31;;;;;;;;;;;;;;;-143.48;57.09;78745.97;5135011;28;19939;-30
2022/11/05 12:39:03;;;;;;;;;;;;;;;-143.48;57.17;78793.56;5134969;28;19937;-31
2022/11/05 12:41:47;;;;;;;;;;;;;;;-143.48;57.86;78825.31;5134920;28;19925;-30
2022/11/05 12:44:32;;;;;;;;;;;;;;;-143.48;58.20;78845.13;5134559;28;19937;-30
2022/11/05 12:47:16;;;;;;;;;;;;;;;-143.48;59.01;78829.25;5092769;28;19912;-30
2022/11/05 12:49:58;;;;;;;;;;;;;;;-143.48;59.19;78841.16;5135088;28;19911;-31
2022/11/05 12:52:32;;;;;;;;;;;;;;;-143.48;59.29;78841.16;5134663;28;19918;-30
2022/11/05 12:55:02;;;;;;;;;;;;;;;-143.48;59.52;78843.16;5134956;28;19912;-31
2022/11/05 12:57:29;;;;;;;;;;;;;;;-143.48;58.79;78837.19;5134361;28;20274;-29
2022/11/05 12:59:54;;;;;;;;;;;;;;;-143.48;59.19;78851.09;5133972;27;19912;-29
2022/11/05 13:02:19;;;;;;;;;;;;;;;-143.48;59.73;78833.22;5134371;28;19911;-29
2022/11/05 13:04:49;;;;;;;;;;;;;;;-143.48;59.16;78894.72;5134362;28;20014;-29
2022/11/05 13:07:16;;;;;;;;;;;;;;;-143.48;60.10;78894.72;5134939;28;19911;-29
2022/11/05 13:09:53;;;;;;;;;;;;;;;-143.48;60.43;78861.00;5135705;27;19912;-29
2022/11/05 13:12:20;;;;;;;;;;;;;;;-143.48;59.96;78831.25;5136844;27;19943;-29